Time;durP1;ratioP1;P1;durP2;ratioP2;P2;SDS_P1;SDS_P2;PMS_P1;PMS_P2;Temp;Humidity;BMP_temperature;BMP_pressure;BME280_temperature;BME280_humidity;BME280_pressure;Samples;Min_cycle;Max_cycle;Signal;HPM_P1;HPM_P2
2021/07/20 00:02:20;;;;;;;;;;;17.00;99.90;;;;;;4916863;29;20017;-74
2021/07/20 00:04:51;;;;;;;;;;;17.00;99.90;;;;;;4917203;29;20384;-74
2021/07/20 00:07:18;;;;;;;;;;;17.00;99.90;;;;;;4915604;29;20018;-73
2021/07/20 00:09:45;;;;;;;;;;;17.00;99.90;;;;;;4900100;29;19963;-74
2021/07/20 00:12:11;;;;;;;;;;;17.10;99.90;;;;;;4916682;29;19970;-73
2021/07/20 00:14:43;;;;;;;;;;;17.10;99.90;;;;;;4900598;29;20362;-74
2021/07/20 00:17:15;;;;;;;;;;;17.20;99.90;;;;;;4915068;29;20014;-74
2021/07/20 00:19:41;;;;;;;;;;;17.20;99.90;;;;;;4915631;29;20135;-74
2021/07/20 00:22:08;;;;;;;;;;;17.20;99.90;;;;;;4915227;29;19966;-73
2021/07/20 00:24:35;;;;;;;;;;;17.20;99.90;;;;;;4916695;29;19970;-73
2021/07/20 00:27:06;;;;;;;;;;;17.20;99.90;;;;;;4916574;29;19927;-73
2021/07/20 00:29:38;;;;;;;;;;;17.10;99.90;;;;;;4915692;29;20022;-74
2021/07/20 00:32:05;;;;;;;;;;;17.00;99.90;;;;;;4915124;29;19983;-74
2021/07/20 00:34:38;;;;;;;;;;;16.90;99.90;;;;;;4916572;29;19983;-73
2021/07/20 00:37:10;;;;;;;;;;;16.90;99.90;;;;;;4915312;29;20358;-75
2021/07/20 00:39:42;;;;;;;;;;;16.90;99.90;;;;;;4915311;29;19927;-75
2021/07/20 00:42:11;;;;;;;;;;;16.80;99.90;;;;;;4914745;29;19966;-74
2021/07/20 00:44:43;;;;;;;;;;;16.80;99.90;;;;;;4900157;29;19966;-74
2021/07/20 00:47:15;;;;;;;;;;;16.70;99.90;;;;;;4915096;29;19934;-74
2021/07/20 00:49:42;;;;;;;;;;;16.70;99.90;;;;;;4914682;29;19934;-73
2021/07/20 00:52:14;;;;;;;;;;;16.60;99.90;;;;;;4914797;29;20378;-74
2021/07/20 00:54:46;;;;;;;;;;;16.60;99.90;;;;;;4916294;29;19934;-74
2021/07/20 00:57:14;;;;;;;;;;;16.50;99.90;;;;;;4915081;29;20018;-74
2021/07/20 00:59:46;;;;;;;;;;;16.50;99.90;;;;;;4914584;29;19927;-74
2021/07/20 01:02:18;;;;;;;;;;;16.40;99.90;;;;;;4914150;29;19934;-75
2021/07/20 01:04:50;;;;;;;;;;;16.30;99.90;;;;;;4914320;29;20390;-74
2021/07/20 01:07:23;;;;;;;;;;;16.20;99.90;;;;;;4914350;29;19935;-74
2021/07/20 01:09:56;;;;;;;;;;;16.30;99.90;;;;;;4899444;29;20406;-74
2021/07/20 01:12:30;;;;;;;;;;;16.20;99.90;;;;;;4913278;29;20014;-73
2021/07/20 01:15:02;;;;;;;;;;;16.10;99.90;;;;;;4899174;29;19927;-74
2021/07/20 01:17:35;;;;;;;;;;;16.10;99.90;;;;;;4914266;29;20283;-73
2021/07/20 01:20:10;;;;;;;;;;;16.00;99.90;;;;;;4914286;29;20299;-73
2021/07/20 01:23:18;;;;;;;;;;;16.10;99.90;;;;;;4914009;29;20470;-74
2021/07/20 01:25:52;;;;;;;;;;;16.00;99.90;;;;;;4895017;29;19962;-73
2021/07/20 01:28:25;;;;;;;;;;;16.00;99.90;;;;;;4914154;29;20401;-74
2021/07/20 01:31:03;;;;;;;;;;;16.00;99.90;;;;;;4913980;29;20011;-74
2021/07/20 01:33:36;;;;;;;;;;;16.00;99.90;;;;;;4914462;29;19969;-73
2021/07/20 01:36:09;;;;;;;;;;;16.00;99.90;;;;;;4914667;29;19931;-74
2021/07/20 01:38:46;;;;;;;;;;;16.00;99.90;;;;;;4914690;29;19927;-73
2021/07/20 01:41:17;;;;;;;;;;;16.00;99.90;;;;;;4915568;29;20309;-73
2021/07/20 01:43:55;;;;;;;;;;;16.00;99.90;;;;;;4914052;29;19927;-73
2021/07/20 01:46:24;;;;;;;;;;;15.80;99.90;;;;;;4915199;29;20067;-73
2021/07/20 01:48:57;;;;;;;;;;;15.80;99.90;;;;;;4915525;29;19927;-74
2021/07/20 01:51:30;;;;;;;;;;;15.80;99.90;;;;;;4898834;29;19970;-74
2021/07/20 01:54:05;;;;;;;;;;;15.80;99.90;;;;;;4899646;29;19927;-74
2021/07/20 01:56:38;;;;;;;;;;;15.80;99.90;;;;;;4915414;29;19927;-74
2021/07/20 01:59:11;;;;;;;;;;;15.80;99.90;;;;;;4914457;29;20283;-73
2021/07/20 02:09:58;;;;;;;;;;;15.70;99.90;;;;;;4917987;29;20420;-74
2021/07/20 02:12:34;;;;;;;;;;;15.70;99.90;;;;;;4901896;29;19927;-74
2021/07/20 02:15:16;;;;;;;;;;;15.60;99.90;;;;;;4918163;29;20002;-74
2021/07/20 02:18:19;;;;;;;;;;;15.60;99.90;;;;;;4920261;29;20322;-74
2021/07/20 02:20:47;;;;;;;;;;;15.60;99.90;;;;;;4919200;29;19927;-74
2021/07/20 02:23:42;;;;;;;;;;;15.50;99.90;;;;;;4919733;29;20409;-73
2021/07/20 02:26:10;;;;;;;;;;;15.50;99.90;;;;;;4918771;29;19951;-74
2021/07/20 02:28:39;;;;;;;;;;;15.40;99.90;;;;;;4917557;29;20022;-74
2021/07/20 02:31:12;;;;;;;;;;;15.40;99.90;;;;;;4918427;29;20354;-73
2021/07/20 02:33:44;;;;;;;;;;;15.40;99.90;;;;;;4917494;29;20022;-74
2021/07/20 02:36:16;;;;;;;;;;;15.40;99.90;;;;;;4917376;29;19979;-74
2021/07/20 02:38:48;;;;;;;;;;;15.40;99.90;;;;;;4902438;29;19927;-74
2021/07/20 02:41:27;;;;;;;;;;;15.30;99.90;;;;;;4917030;29;20358;-74
2021/07/20 02:43:53;;;;;;;;;;;15.30;99.90;;;;;;4901584;29;20014;-74
2021/07/20 02:46:20;;;;;;;;;;;15.20;99.90;;;;;;4917257;29;20038;-74
2021/07/20 02:48:52;;;;;;;;;;;15.20;99.90;;;;;;4917195;29;20124;-73
2021/07/20 02:51:23;;;;;;;;;;;15.10;99.90;;;;;;4917114;29;20030;-75
2021/07/20 02:53:59;;;;;;;;;;;15.10;99.90;;;;;;4902348;29;20029;-74
2021/07/20 02:56:26;;;;;;;;;;;15.00;99.90;;;;;;4917259;29;20040;-74
2021/07/20 02:58:59;;;;;;;;;;;14.90;99.90;;;;;;4918130;29;19934;-73
2021/07/20 03:01:44;;;;;;;;;;;14.90;99.90;;;;;;4917130;29;19927;-74
2021/07/20 03:04:16;;;;;;;;;;;14.90;99.90;;;;;;4916864;29;19933;-74
2021/07/20 03:06:52;;;;;;;;;;;14.80;99.90;;;;;;4916754;29;20394;-74
2021/07/20 03:09:23;;;;;;;;;;;14.90;99.90;;;;;;4916700;29;20434;-74
2021/07/20 03:11:59;;;;;;;;;;;14.90;99.90;;;;;;4901575;29;19927;-74
2021/07/20 03:14:34;;;;;;;;;;;14.90;99.90;;;;;;4916603;29;19927;-74
2021/07/20 03:17:15;;;;;;;;;;;14.80;99.90;;;;;;4916308;29;20393;-75
2021/07/20 03:19:44;;;;;;;;;;;14.90;99.90;;;;;;4900532;29;19926;-75
2021/07/20 03:22:24;;;;;;;;;;;14.90;99.90;;;;;;4916054;29;19931;-74
2021/07/20 03:25:01;;;;;;;;;;;14.90;99.90;;;;;;4917343;29;19927;-74
2021/07/20 03:27:31;;;;;;;;;;;14.90;99.90;;;;;;4916284;29;19928;-73
2021/07/20 03:30:04;;;;;;;;;;;14.90;99.90;;;;;;4916239;29;19927;-73
2021/07/20 03:32:37;;;;;;;;;;;14.80;99.90;;;;;;4900714;29;20301;-74
2021/07/20 03:35:06;;;;;;;;;;;14.80;99.90;;;;;;4900613;29;19933;-74
2021/07/20 03:37:34;;;;;;;;;;;14.80;99.90;;;;;;4900462;29;20034;-74
2021/07/20 03:40:06;;;;;;;;;;;15.10;99.90;;;;;;4915805;29;19927;-72
2021/07/20 03:42:35;;;;;;;;;;;15.50;99.90;;;;;;4899976;29;19960;-74
2021/07/20 03:45:03;;;;;;;;;;;15.80;99.90;;;;;;4916195;29;19931;-74
2021/07/20 03:47:37;;;;;;;;;;;15.70;99.90;;;;;;4901539;29;19931;-73
2021/07/20 03:50:19;;;;;;;;;;;15.60;99.90;;;;;;4915957;29;19931;-74
2021/07/20 03:52:49;;;;;;;;;;;15.50;99.90;;;;;;4899911;29;19931;-73
2021/07/20 03:55:17;;;;;;;;;;;15.40;99.90;;;;;;4915616;29;19931;-73
2021/07/20 03:57:44;;;;;;;;;;;15.20;99.90;;;;;;4915394;29;19927;-73
2021/07/20 04:00:16;;;;;;;;;;;15.10;99.90;;;;;;4915673;29;19927;-74
2021/07/20 04:03:21;;;;;;;;;;;15.10;99.90;;;;;;4901913;29;19928;-72
2021/07/20 04:06:06;;;;;;;;;;;15.00;99.90;;;;;;4917325;29;19927;-74
2021/07/20 04:08:38;;;;;;;;;;;14.90;99.90;;;;;;4918851;29;19927;-74
2021/07/20 04:11:15;;;;;;;;;;;14.90;99.90;;;;;;4914521;29;19983;-74
2021/07/20 04:13:50;;;;;;;;;;;14.80;99.90;;;;;;4900136;29;19931;-73
2021/07/20 04:16:39;;;;;;;;;;;14.80;99.90;;;;;;4918307;29;19974;-74
2021/07/20 04:19:15;;;;;;;;;;;14.80;99.90;;;;;;4932984;29;19927;-74
2021/07/20 04:22:05;;;;;;;;;;;14.80;99.90;;;;;;4919921;29;20409;-74
2021/07/20 04:24:38;;;;;;;;;;;14.80;99.90;;;;;;4918315;29;19935;-74
2021/07/20 04:27:10;;;;;;;;;;;14.70;99.90;;;;;;4914048;29;19970;-73
2021/07/20 04:29:43;;;;;;;;;;;14.80;99.90;;;;;;4915326;29;19934;-74
2021/07/20 04:32:12;;;;;;;;;;;14.80;99.90;;;;;;4913886;29;19934;-74
2021/07/20 04:34:39;;;;;;;;;;;14.70;99.90;;;;;;4916737;29;19927;-74
2021/07/20 04:37:18;;;;;;;;;;;14.70;99.90;;;;;;4914779;29;20045;-74
2021/07/20 04:39:55;;;;;;;;;;;14.70;99.90;;;;;;4916987;29;19927;-74
2021/07/20 04:42:34;;;;;;;;;;;14.80;99.90;;;;;;4914347;29;19938;-74
2021/07/20 04:45:00;;;;;;;;;;;14.80;99.90;;;;;;4914553;29;20351;-74
2021/07/20 04:47:55;;;;;;;;;;;14.80;99.90;;;;;;4915457;29;20025;-74
2021/07/20 04:50:40;;;;;;;;;;;14.90;99.90;;;;;;4913457;29;19928;-74
2021/07/20 04:53:08;;;;;;;;;;;15.00;99.90;;;;;;4915883;29;20026;-74
2021/07/20 04:55:44;;;;;;;;;;;15.00;99.90;;;;;;4917966;29;19973;-73
2021/07/20 04:58:16;;;;;;;;;;;15.10;99.90;;;;;;4914456;29;20342;-74
2021/07/20 05:00:50;;;;;;;;;;;15.00;99.90;;;;;;4914456;29;19979;-73
2021/07/20 05:03:20;;;;;;;;;;;15.10;99.90;;;;;;4913328;29;20009;-74
2021/07/20 05:05:52;;;;;;;;;;;15.10;99.90;;;;;;4913772;29;19931;-74
2021/07/20 05:08:20;;;;;;;;;;;15.10;99.90;;;;;;4913830;29;19959;-74
2021/07/20 05:10:57;;;;;;;;;;;15.10;99.90;;;;;;4913919;29;19927;-74
2021/07/20 05:13:32;;;;;;;;;;;15.20;99.90;;;;;;4914084;29;20018;-74
2021/07/20 05:16:00;;;;;;;;;;;15.20;99.90;;;;;;4894667;29;19931;-74
2021/07/20 05:18:42;;;;;;;;;;;15.20;99.90;;;;;;4913721;29;19935;-73
2021/07/20 05:21:24;;;;;;;;;;;15.20;99.90;;;;;;4912266;29;20212;-74
2021/07/20 05:23:52;;;;;;;;;;;15.30;99.90;;;;;;4897927;29;19927;-74
2021/07/20 05:26:45;;;;;;;;;;;15.30;99.90;;;;;;4901015;29;19927;-74
2021/07/20 05:29:20;;;;;;;;;;;15.40;99.90;;;;;;4913578;29;20018;-74
2021/07/20 05:31:56;;;;;;;;;;;15.40;99.90;;;;;;4899211;29;20394;-74
2021/07/20 05:34:29;;;;;;;;;;;15.40;99.90;;;;;;4918191;29;20123;-74
2021/07/20 05:37:00;;;;;;;;;;;15.50;99.90;;;;;;4905344;29;19956;-73
2021/07/20 05:39:43;;;;;;;;;;;15.50;99.90;;;;;;4905488;29;19931;-74
2021/07/20 05:42:19;;;;;;;;;;;15.60;99.90;;;;;;4918004;29;20351;-75
2021/07/20 05:44:52;;;;;;;;;;;15.70;99.90;;;;;;4917906;29;19927;-74
2021/07/20 05:47:20;;;;;;;;;;;15.70;99.90;;;;;;4917912;29;19927;-74
2021/07/20 05:49:52;;;;;;;;;;;15.80;99.90;;;;;;4899219;29;20411;-74
2021/07/20 05:52:25;;;;;;;;;;;15.80;99.90;;;;;;4899877;29;20325;-74
2021/07/20 05:55:01;;;;;;;;;;;15.90;99.90;;;;;;4899590;29;19927;-74
2021/07/20 05:57:35;;;;;;;;;;;15.90;99.90;;;;;;4899081;29;19928;-75
2021/07/20 06:00:19;;;;;;;;;;;15.90;99.90;;;;;;4899512;29;19928;-74
2021/07/20 06:03:17;;;;;;;;;;;16.00;99.90;;;;;;4886790;29;19927;-74
2021/07/20 06:05:50;;;;;;;;;;;16.00;99.90;;;;;;4900803;29;19963;-74
2021/07/20 06:08:17;;;;;;;;;;;16.00;99.90;;;;;;4898923;29;20006;-74
2021/07/20 06:10:45;;;;;;;;;;;16.00;99.90;;;;;;4898964;29;19927;-75
2021/07/20 06:13:12;;;;;;;;;;;16.00;99.90;;;;;;4899922;29;19927;-74
2021/07/20 06:15:45;;;;;;;;;;;16.10;99.90;;;;;;4898793;29;20030;-74
2021/07/20 06:18:12;;;;;;;;;;;16.10;99.90;;;;;;4898412;29;19934;-74
2021/07/20 06:20:53;;;;;;;;;;;16.20;99.90;;;;;;4898704;29;20042;-74
2021/07/20 06:23:27;;;;;;;;;;;16.20;99.90;;;;;;4898800;29;19928;-74
2021/07/20 06:25:59;;;;;;;;;;;16.20;99.90;;;;;;4898972;29;19934;-74
2021/07/20 06:28:31;;;;;;;;;;;16.30;99.90;;;;;;4898744;29;19927;-74
2021/07/20 06:31:03;;;;;;;;;;;16.30;99.90;;;;;;4898478;29;19938;-74
2021/07/20 06:33:32;;;;;;;;;;;16.30;99.90;;;;;;4898503;29;19927;-74
2021/07/20 06:36:03;;;;;;;;;;;16.40;99.90;;;;;;4898661;29;19934;-74
2021/07/20 06:38:32;;;;;;;;;;;16.40;99.90;;;;;;4898541;29;19962;-75
2021/07/20 06:41:04;;;;;;;;;;;16.40;99.90;;;;;;4898251;29;20291;-74
2021/07/20 06:43:32;;;;;;;;;;;16.50;99.90;;;;;;4898722;29;20011;-74
2021/07/20 06:46:00;;;;;;;;;;;16.60;99.90;;;;;;4898121;29;20022;-75
2021/07/20 06:48:29;;;;;;;;;;;16.70;99.90;;;;;;4899491;29;20034;-74
2021/07/20 06:50:57;;;;;;;;;;;16.70;99.90;;;;;;4898888;29;20280;-74
2021/07/20 06:53:24;;;;;;;;;;;16.80;99.90;;;;;;4899417;29;19931;-74
2021/07/20 06:55:55;;;;;;;;;;;16.90;99.90;;;;;;4898438;29;20368;-74
2021/07/20 06:58:23;;;;;;;;;;;16.90;99.90;;;;;;4898175;29;20030;-74
2021/07/20 07:00:54;;;;;;;;;;;17.00;99.90;;;;;;4898040;29;19927;-75
2021/07/20 07:03:46;;;;;;;;;;;17.10;99.90;;;;;;4883228;29;19934;-74
2021/07/20 07:06:20;;;;;;;;;;;17.10;99.90;;;;;;4883523;29;19949;-75
2021/07/20 07:08:47;;;;;;;;;;;17.20;99.90;;;;;;4882681;29;19995;-74
2021/07/20 07:11:14;;;;;;;;;;;17.20;99.90;;;;;;4898023;29;20350;-75
2021/07/20 07:13:46;;;;;;;;;;;17.20;99.90;;;;;;4898058;29;19927;-74
2021/07/20 07:16:13;;;;;;;;;;;17.30;99.90;;;;;;4898074;29;19952;-74
2021/07/20 07:18:42;;;;;;;;;;;17.40;99.90;;;;;;4882422;29;20026;-75
2021/07/20 07:21:08;;;;;;;;;;;17.40;99.90;;;;;;4881984;29;19942;-74
2021/07/20 07:23:36;;;;;;;;;;;17.50;99.90;;;;;;4882245;29;19970;-74
2021/07/20 07:26:03;;;;;;;;;;;17.50;99.90;;;;;;4897897;29;20042;-75
2021/07/20 07:28:30;;;;;;;;;;;17.60;99.90;;;;;;4897612;29;19928;-74
2021/07/20 07:31:02;;;;;;;;;;;17.60;99.90;;;;;;4897523;29;20021;-74
2021/07/20 07:33:28;;;;;;;;;;;17.70;99.90;;;;;;4897708;29;20022;-75
2021/07/20 07:36:00;;;;;;;;;;;17.70;99.90;;;;;;4897530;29;20018;-75
2021/07/20 07:38:33;;;;;;;;;;;17.70;99.90;;;;;;4897680;29;19966;-75
2021/07/20 07:41:05;;;;;;;;;;;17.80;99.90;;;;;;4897351;29;20034;-74
2021/07/20 07:43:37;;;;;;;;;;;17.80;99.90;;;;;;4897322;29;20030;-75
2021/07/20 07:46:05;;;;;;;;;;;17.90;99.90;;;;;;4897459;29;19955;-75
2021/07/20 07:48:38;;;;;;;;;;;18.00;99.90;;;;;;4897370;29;20030;-74
2021/07/20 07:51:06;;;;;;;;;;;18.10;99.90;;;;;;4897264;29;19969;-75
2021/07/20 07:53:40;;;;;;;;;;;18.10;99.90;;;;;;4897509;29;20022;-75
2021/07/20 07:56:07;;;;;;;;;;;18.20;99.90;;;;;;4881789;29;20442;-75
2021/07/20 07:58:36;;;;;;;;;;;18.30;99.90;;;;;;4896493;29;20026;-74
2021/07/20 08:01:04;;;;;;;;;;;18.40;99.90;;;;;;4898257;29;20025;-74
2021/07/20 08:03:32;;;;;;;;;;;18.40;99.90;;;;;;4896914;29;19962;-74
2021/07/20 08:06:04;;;;;;;;;;;18.50;99.90;;;;;;4897098;29;20438;-75
2021/07/20 08:08:37;;;;;;;;;;;18.60;99.90;;;;;;4896820;29;20053;-74
2021/07/20 08:11:11;;;;;;;;;;;18.70;99.90;;;;;;4896674;29;19931;-74
2021/07/20 08:13:43;;;;;;;;;;;18.90;99.90;;;;;;4896813;29;20014;-74
2021/07/20 08:16:11;;;;;;;;;;;19.00;99.90;;;;;;4896854;29;20390;-74
2021/07/20 08:18:50;;;;;;;;;;;19.00;99.90;;;;;;5089802;28;19912;-74
2021/07/20 08:21:17;;;;;;;;;;;19.00;99.90;;;;;;5068238;28;19978;-75
2021/07/20 08:23:45;;;;;;;;;;;19.10;99.90;;;;;;5087351;28;19959;-75
2021/07/20 08:26:18;;;;;;;;;;;19.20;99.90;;;;;;5071465;28;19931;-74
2021/07/20 08:29:02;;;;;;;;;;;19.20;99.90;;;;;;5088833;28;19948;-74
2021/07/20 08:31:36;;;;;;;;;;;19.30;99.90;;;;;;5072354;28;20022;-74
2021/07/20 08:34:09;;;;;;;;;;;19.40;99.90;;;;;;5086767;28;20023;-75
2021/07/20 08:36:38;;;;;;;;;;;19.50;99.90;;;;;;5084493;28;19986;-74
2021/07/20 08:39:11;;;;;;;;;;;19.60;99.90;;;;;;5077108;28;20027;-74
2021/07/20 08:41:44;;;;;;;;;;;19.60;99.90;;;;;;5069160;28;19933;-74
2021/07/20 08:44:40;;;;;;;;;;;19.70;99.90;;;;;;5083516;28;19963;-74
2021/07/20 08:47:20;;;;;;;;;;;19.80;99.90;;;;;;5097019;28;20346;-73
2021/07/20 08:49:46;;;;;;;;;;;19.80;99.90;;;;;;5067910;28;19924;-74
2021/07/20 08:52:31;;;;;;;;;;;19.90;99.90;;;;;;5067616;28;19931;-75
2021/07/20 08:55:06;;;;;;;;;;;19.90;99.90;;;;;;5073461;28;19978;-74
2021/07/20 08:57:48;;;;;;;;;;;20.10;99.90;;;;;;5083444;28;19925;-74
2021/07/20 09:00:21;;;;;;;;;;;20.20;99.90;;;;;;5068324;28;20369;-75
2021/07/20 09:02:53;;;;;;;;;;;20.20;99.90;;;;;;5067411;28;20024;-74
2021/07/20 09:05:26;;;;;;;;;;;20.20;99.90;;;;;;5080504;28;20031;-74
2021/07/20 09:08:00;;;;;;;;;;;20.30;99.90;;;;;;5071590;28;19924;-74
2021/07/20 09:10:53;;;;;;;;;;;20.40;99.90;;;;;;5068251;28;19925;-74
2021/07/20 09:13:32;;;;;;;;;;;20.50;99.90;;;;;;5076903;28;19924;-74
2021/07/20 09:16:19;;;;;;;;;;;20.60;99.90;;;;;;5070633;28;20382;-73
2021/07/20 09:18:54;;;;;;;;;;;20.70;99.90;;;;;;5087338;28;20015;-74
2021/07/20 09:21:28;;;;;;;;;;;20.80;99.90;;;;;;5087234;28;20015;-74
2021/07/20 09:24:14;;;;;;;;;;;20.90;99.90;;;;;;5085001;28;20443;-74
2021/07/20 09:26:55;;;;;;;;;;;21.00;99.90;;;;;;5068416;28;19924;-75
2021/07/20 09:29:25;;;;;;;;;;;21.10;99.90;;;;;;5058115;28;19959;-74
2021/07/20 09:32:01;;;;;;;;;;;21.20;99.90;;;;;;5054833;28;19925;-74
2021/07/20 09:34:43;;;;;;;;;;;21.30;99.90;;;;;;5039455;28;19925;-74
2021/07/20 09:37:19;;;;;;;;;;;21.30;99.90;;;;;;5050950;28;19931;-75
2021/07/20 09:39:55;;;;;;;;;;;21.30;99.90;;;;;;5070081;28;19960;-74
2021/07/20 09:42:41;;;;;;;;;;;21.40;99.90;;;;;;5037469;28;19931;-74
2021/07/20 09:45:15;;;;;;;;;;;21.50;99.90;;;;;;5049198;28;20378;-75
2021/07/20 09:47:50;;;;;;;;;;;21.50;99.90;;;;;;5056483;28;20483;-74
2021/07/20 09:50:23;;;;;;;;;;;21.60;99.90;;;;;;5074695;28;19974;-75
2021/07/20 09:52:54;;;;;;;;;;;21.70;99.90;;;;;;5069089;28;20199;-74
2021/07/20 09:55:36;;;;;;;;;;;21.80;99.90;;;;;;5049504;28;20344;-75
2021/07/20 09:58:23;;;;;;;;;;;21.80;99.90;;;;;;5071850;28;19924;-75
2021/07/20 10:01:14;;;;;;;;;;;21.80;99.90;;;;;;5056595;28;20011;-75
2021/07/20 10:03:52;;;;;;;;;;;22.00;99.90;;;;;;5069519;28;19929;-75
2021/07/20 10:06:35;;;;;;;;;;;22.20;99.90;;;;;;5066277;28;20343;-74
2021/07/20 10:09:15;;;;;;;;;;;22.30;99.90;;;;;;5072949;28;20373;-75
2021/07/20 10:11:49;;;;;;;;;;;22.40;99.90;;;;;;5072790;28;20355;-74
2021/07/20 10:14:26;;;;;;;;;;;22.50;99.90;;;;;;5071633;28;19969;-75
2021/07/20 10:17:07;;;;;;;;;;;22.50;99.90;;;;;;5070088;28;20397;-74
2021/07/20 10:19:47;;;;;;;;;;;22.60;99.90;;;;;;5088886;28;19976;-74
2021/07/20 10:22:26;;;;;;;;;;;22.70;99.90;;;;;;5073005;28;20030;-74
2021/07/20 10:24:59;;;;;;;;;;;22.80;99.90;;;;;;5081013;28;19924;-75
2021/07/20 10:27:38;;;;;;;;;;;23.00;99.90;;;;;;5088372;28;19931;-74
2021/07/20 10:30:11;;;;;;;;;;;23.10;99.90;;;;;;5087174;28;20023;-74
2021/07/20 10:32:54;;;;;;;;;;;23.20;99.90;;;;;;5077492;28;20445;-75
2021/07/20 10:35:38;;;;;;;;;;;23.30;99.90;;;;;;5074138;28;19925;-75
2021/07/20 10:38:08;;;;;;;;;;;23.30;99.90;;;;;;5091379;28;20389;-75
2021/07/20 10:40:35;;;;;;;;;;;23.20;99.90;;;;;;5091521;28;19970;-74
2021/07/20 10:43:12;;;;;;;;;;;23.30;99.90;;;;;;5072011;28;20007;-73
2021/07/20 10:45:46;;;;;;;;;;;23.20;99.90;;;;;;5082768;28;19924;-75
2021/07/20 10:48:24;;;;;;;;;;;23.20;99.90;;;;;;5075330;28;19924;-74
2021/07/20 10:50:56;;;;;;;;;;;23.10;99.90;;;;;;5100109;28;20382;-74
2021/07/20 10:53:41;;;;;;;;;;;23.30;99.90;;;;;;5094690;28;19955;-74
2021/07/20 10:56:22;;;;;;;;;;;23.40;99.90;;;;;;5061445;28;19987;-75
2021/07/20 10:58:54;;;;;;;;;;;23.40;99.90;;;;;;5086072;28;19967;-72
2021/07/20 11:01:45;;;;;;;;;;;23.70;99.90;;;;;;5069608;28;20386;-72
2021/07/20 11:04:30;;;;;;;;;;;23.80;99.90;;;;;;5079132;28;20387;-72
2021/07/20 11:07:04;;;;;;;;;;;23.90;99.90;;;;;;5084468;28;20209;-72
2021/07/20 11:09:38;;;;;;;;;;;23.90;99.90;;;;;;5091444;28;20011;-72
2021/07/20 11:12:10;;;;;;;;;;;24.00;99.90;;;;;;5074468;28;19991;-72
2021/07/20 11:14:45;;;;;;;;;;;24.00;99.90;;;;;;5085066;28;20291;-72
2021/07/20 11:17:18;;;;;;;;;;;24.00;99.90;;;;;;5084334;28;20031;-72
2021/07/20 11:19:51;;;;;;;;;;;24.20;99.90;;;;;;5087129;28;19982;-72
2021/07/20 11:22:23;;;;;;;;;;;24.30;99.90;;;;;;5059736;28;19928;-72
2021/07/20 11:24:55;;;;;;;;;;;24.40;99.90;;;;;;5077745;28;19959;-72
2021/07/20 11:27:27;;;;;;;;;;;24.50;99.90;;;;;;5081504;28;20405;-72
2021/07/20 11:29:54;;;;;;;;;;;24.70;99.90;;;;;;5087373;28;20019;-72
2021/07/20 11:32:30;;;;;;;;;;;24.70;99.90;;;;;;5070129;28;19978;-72
2021/07/20 11:35:11;;;;;;;;;;;24.70;99.90;;;;;;5078130;28;19924;-72
2021/07/20 11:37:55;;;;;;;;;;;24.70;99.90;;;;;;5087997;28;20026;-72
2021/07/20 11:40:30;;;;;;;;;;;24.80;99.90;;;;;;5054874;28;20011;-72
2021/07/20 11:43:09;;;;;;;;;;;25.00;99.90;;;;;;5069987;28;19924;-72
2021/07/20 11:45:55;;;;;;;;;;;25.20;99.90;;;;;;5067121;28;19929;-72
2021/07/20 11:48:29;;;;;;;;;;;25.10;99.90;;;;;;5066044;28;20019;-72
2021/07/20 11:51:13;;;;;;;;;;;24.90;99.90;;;;;;5069709;28;19924;-72
2021/07/20 11:53:59;;;;;;;;;;;24.70;99.90;;;;;;5086384;28;20019;-72
2021/07/20 11:56:31;;;;;;;;;;;24.60;99.90;;;;;;5079075;28;20006;-72
2021/07/20 11:59:08;;;;;;;;;;;24.60;99.90;;;;;;5089842;28;20376;-72
2021/07/20 12:01:46;;;;;;;;;;;24.60;99.90;;;;;;5073522;28;20018;-72
2021/07/20 12:04:33;;;;;;;;;;;24.60;99.90;;;;;;5072426;28;19924;-72
2021/07/20 12:07:21;;;;;;;;;;;24.50;99.90;;;;;;5072893;28;19924;-72
2021/07/20 12:09:54;;;;;;;;;;;24.50;99.90;;;;;;5086399;28;20035;-72
2021/07/20 12:12:32;;;;;;;;;;;24.50;99.90;;;;;;5069439;28;20421;-72
2021/07/20 12:14:59;;;;;;;;;;;24.30;99.90;;;;;;5078242;28;19928;-72
2021/07/20 12:17:32;;;;;;;;;;;24.20;99.90;;;;;;5085960;28;19924;-72
2021/07/20 12:19:58;;;;;;;;;;;24.30;99.90;;;;;;5087112;28;19984;-72
2021/07/20 12:22:25;;;;;;;;;;;24.60;99.90;;;;;;5070189;28;20019;-72
2021/07/20 12:24:53;;;;;;;;;;;24.80;99.90;;;;;;5078227;28;20470;-72
2021/07/20 12:27:25;;;;;;;;;;;25.00;99.80;;;;;;5084897;28;19978;-72
2021/07/20 12:29:57;;;;;;;;;;;25.00;98.70;;;;;;5091290;28;19924;-72
2021/07/20 12:32:30;;;;;;;;;;;25.20;99.90;;;;;;5090562;28;19987;-74
2021/07/20 12:35:02;;;;;;;;;;;25.20;97.20;;;;;;5085018;28;20301;-74
2021/07/20 12:37:29;;;;;;;;;;;25.30;97.90;;;;;;5085559;28;20022;-73
2021/07/20 12:40:00;;;;;;;;;;;25.30;96.30;;;;;;5090562;28;19923;-73
2021/07/20 12:42:42;;;;;;;;;;;25.40;97.80;;;;;;5091172;28;20381;-74
2021/07/20 12:45:10;;;;;;;;;;;25.40;98.90;;;;;;5086821;28;20401;-74
2021/07/20 12:47:46;;;;;;;;;;;25.50;99.40;;;;;;5089870;28;19973;-74
2021/07/20 12:50:14;;;;;;;;;;;25.50;99.90;;;;;;5101909;28;19924;-73
2021/07/20 12:52:47;;;;;;;;;;;25.60;99.50;;;;;;5082259;28;20031;-73
2021/07/20 12:55:19;;;;;;;;;;;25.70;99.50;;;;;;5083546;28;19960;-73
2021/07/20 12:57:51;;;;;;;;;;;25.80;97.10;;;;;;5094144;28;20395;-74
2021/07/20 13:00:24;;;;;;;;;;;26.00;98.80;;;;;;5094149;28;19959;-73
2021/07/20 13:02:52;;;;;;;;;;;26.20;94.10;;;;;;5085051;28;19970;-73
2021/07/20 13:05:25;;;;;;;;;;;26.20;94.40;;;;;;5099726;28;20368;-75
2021/07/20 13:07:52;;;;;;;;;;;26.30;94.70;;;;;;5077280;28;19959;-73
2021/07/20 13:10:24;;;;;;;;;;;26.40;94.30;;;;;;5094123;28;20026;-73
2021/07/20 13:12:57;;;;;;;;;;;26.40;92.90;;;;;;5092079;28;19925;-74
2021/07/20 13:15:25;;;;;;;;;;;26.40;91.20;;;;;;5077469;28;19928;-75
2021/07/20 13:17:54;;;;;;;;;;;26.50;93.30;;;;;;5090598;28;19924;-74
2021/07/20 13:20:22;;;;;;;;;;;26.50;91.90;;;;;;5093028;28;19935;-73
2021/07/20 13:22:54;;;;;;;;;;;26.70;93.10;;;;;;5091460;28;20291;-74
2021/07/20 13:25:26;;;;;;;;;;;26.80;90.10;;;;;;5088600;28;20023;-73
2021/07/20 13:27:54;;;;;;;;;;;26.50;87.30;;;;;;5094064;28;19924;-74
2021/07/20 13:30:27;;;;;;;;;;;26.50;88.30;;;;;;5074928;28;20477;-73
2021/07/20 13:32:59;;;;;;;;;;;26.60;90.00;;;;;;5077157;28;19964;-73
2021/07/20 13:35:27;;;;;;;;;;;26.60;89.40;;;;;;5092082;28;19951;-74
2021/07/20 13:37:59;;;;;;;;;;;26.50;90.10;;;;;;5078783;28;20030;-74
2021/07/20 13:40:34;;;;;;;;;;;26.60;91.90;;;;;;5096562;28;20340;-73
2021/07/20 13:43:01;;;;;;;;;;;26.70;89.70;;;;;;5097756;28;19946;-73
2021/07/20 13:45:33;;;;;;;;;;;26.80;87.50;;;;;;5104502;28;20023;-74
2021/07/20 13:48:09;;;;;;;;;;;26.90;84.90;;;;;;5078573;28;19978;-74
2021/07/20 13:50:42;;;;;;;;;;;27.10;83.60;;;;;;5094982;28;20015;-74
2021/07/20 13:53:09;;;;;;;;;;;27.20;85.00;;;;;;5085040;28;20002;-73
2021/07/20 13:55:43;;;;;;;;;;;27.30;84.50;;;;;;5088359;28;19963;-74
2021/07/20 13:58:16;;;;;;;;;;;27.30;82.40;;;;;;5072599;28;19937;-73
2021/07/20 14:00:48;;;;;;;;;;;27.20;82.70;;;;;;5090447;28;20035;-74
2021/07/20 14:03:20;;;;;;;;;;;27.40;83.00;;;;;;5091113;28;19950;-74
2021/07/20 14:05:50;;;;;;;;;;;27.40;83.30;;;;;;5089939;28;19951;-74
2021/07/20 14:08:16;;;;;;;;;;;27.40;79.20;;;;;;5090777;28;20015;-73
2021/07/20 14:10:43;;;;;;;;;;;27.50;79.40;;;;;;5081899;28;20370;-74
2021/07/20 14:13:15;;;;;;;;;;;27.20;79.80;;;;;;5095366;28;19967;-74
2021/07/20 14:15:48;;;;;;;;;;;27.10;81.40;;;;;;5077158;28;19925;-74
2021/07/20 14:18:21;;;;;;;;;;;27.20;82.50;;;;;;5085719;28;20349;-74
2021/07/20 14:20:48;;;;;;;;;;;27.20;81.00;;;;;;5079455;28;20344;-74
2021/07/20 14:23:21;;;;;;;;;;;27.10;83.80;;;;;;5082604;28;20019;-74
2021/07/20 14:25:52;;;;;;;;;;;27.10;83.30;;;;;;5088758;28;19955;-74
2021/07/20 14:28:20;;;;;;;;;;;27.30;86.30;;;;;;5094068;28;19974;-74
2021/07/20 14:30:53;;;;;;;;;;;27.40;83.60;;;;;;5077911;28;19930;-74
2021/07/20 14:33:20;;;;;;;;;;;27.50;83.60;;;;;;5090447;28;20429;-75
2021/07/20 14:35:52;;;;;;;;;;;27.50;83.40;;;;;;5078802;28;20402;-74
2021/07/20 14:38:40;;;;;;;;;;;27.60;81.50;;;;;;5090627;28;19931;-76
2021/07/20 14:41:09;;;;;;;;;;;27.50;81.60;;;;;;5091562;28;19925;-74
2021/07/20 14:43:42;;;;;;;;;;;27.50;80.80;;;;;;5091022;28;20069;-75
2021/07/20 14:46:15;;;;;;;;;;;27.60;84.60;;;;;;5079293;28;19929;-74
2021/07/20 14:48:43;;;;;;;;;;;27.90;83.50;;;;;;5093182;28;19928;-73
2021/07/20 14:51:15;;;;;;;;;;;28.30;82.30;;;;;;5093499;28;19935;-77
2021/07/20 14:53:49;;;;;;;;;;;28.60;78.40;;;;;;5075502;28;20347;-74
2021/07/20 14:56:21;;;;;;;;;;;28.70;79.80;;;;;;5090237;28;19969;-74
2021/07/20 14:58:52;;;;;;;;;;;28.90;76.60;;;;;;5093678;28;19946;-74
2021/07/20 15:01:21;;;;;;;;;;;28.90;77.60;;;;;;5069097;28;20011;-73
2021/07/20 15:04:00;;;;;;;;;;;28.50;77.10;;;;;;5082282;28;19924;-75